createdAt,value
2019-04-26T00:02:22.886Z,0.80
2019-04-26T00:04:53.445Z,0.93
2019-04-26T00:07:23.873Z,0.80
2019-04-26T00:09:57.486Z,0.90
2019-04-26T00:12:43.619Z,0.87
2019-04-26T00:15:16.398Z,0.70
2019-04-26T00:17:50.462Z,0.70
2019-04-26T00:20:19.899Z,0.73
2019-04-26T00:22:51.187Z,1.03
2019-04-26T00:25:23.438Z,0.60
2019-04-26T00:27:53.650Z,0.90
2019-04-26T00:30:23.221Z,1.17
2019-04-26T00:32:53.053Z,0.77
2019-04-26T00:35:22.654Z,0.70
2019-04-26T00:37:52.087Z,0.70
2019-04-26T00:40:22.468Z,0.63
2019-04-26T00:42:54.517Z,0.87
2019-04-26T00:45:26.012Z,0.83
2019-04-26T00:47:56.082Z,0.70
2019-04-26T00:50:25.838Z,0.70
2019-04-26T00:52:56.197Z,0.77
2019-04-26T00:55:26.374Z,0.80
2019-04-26T00:57:56.123Z,0.87
2019-04-26T01:00:26.063Z,0.80
2019-04-26T01:02:56.942Z,0.90
2019-04-26T01:05:27.359Z,0.87
2019-04-26T01:07:57.637Z,0.93
2019-04-26T01:10:27.204Z,0.80
2019-04-26T01:12:56.606Z,0.93
2019-04-26T01:15:26.637Z,0.90
2019-04-26T01:17:56.263Z,1.00
2019-04-26T01:20:27.846Z,0.80
2019-04-26T01:23:00.723Z,0.90
2019-04-26T01:25:51.116Z,0.80
2019-04-26T01:28:29.518Z,0.83
2019-04-26T01:31:02.287Z,0.90
2019-04-26T01:33:34.333Z,1.00
2019-04-26T01:36:12.783Z,1.10
2019-04-26T01:38:35.785Z,0.80
2019-04-26T01:41:07.985Z,1.00
2019-04-26T01:43:56.922Z,1.37
2019-04-26T01:46:33.614Z,1.00
2019-04-26T01:49:12.584Z,1.10
2019-04-26T01:51:47.682Z,0.90
2019-04-26T01:54:20.145Z,0.93
2019-04-26T01:56:52.550Z,1.17
2019-04-26T01:59:23.594Z,1.00
2019-04-26T02:02:04.755Z,0.90
2019-04-26T02:04:35.979Z,0.90
2019-04-26T02:07:05.896Z,1.23
2019-04-26T02:09:35.479Z,1.40
2019-04-26T02:12:05.437Z,1.40
2019-04-26T02:14:35.196Z,0.90
2019-04-26T02:17:04.883Z,1.00
2019-04-26T02:19:34.734Z,1.10
2019-04-26T02:22:13.297Z,1.20
2019-04-26T02:24:44.760Z,1.10
2019-04-26T02:27:16.354Z,1.10
2019-04-26T02:29:45.794Z,1.07
2019-04-26T02:32:15.299Z,1.20
2019-04-26T02:34:44.966Z,1.27
2019-04-26T02:37:16.695Z,1.30
2019-04-26T02:39:49.941Z,1.57
2019-04-26T02:42:22.410Z,1.40
2019-04-26T02:45:20.882Z,1.30
2019-04-26T02:47:57.256Z,1.40
2019-04-26T02:50:31.136Z,1.20
2019-04-26T02:53:13.229Z,1.33
2019-04-26T02:56:12.944Z,1.50
2019-04-26T02:58:45.419Z,1.27
2019-04-26T03:01:14.907Z,1.20
2019-04-26T03:03:45.550Z,1.30
2019-04-26T03:06:15.410Z,1.30
2019-04-26T03:08:45.583Z,1.40
2019-04-26T03:11:18.107Z,1.10
2019-04-26T03:13:57.855Z,1.40
2019-04-26T03:16:39.275Z,1.50
2019-04-26T03:19:13.988Z,1.50
2019-04-26T03:22:05.873Z,1.50
2019-04-26T03:25:02.867Z,1.47
2019-04-26T03:27:40.984Z,1.20
2019-04-26T03:30:22.386Z,1.67
2019-04-26T03:32:58.713Z,1.57
2019-04-26T03:35:43.947Z,2.20
2019-04-26T03:38:14.565Z,1.60
2019-04-26T03:40:57.440Z,1.47
2019-04-26T03:43:36.824Z,1.50
2019-04-26T03:46:24.194Z,2.10
2019-04-26T03:49:13.553Z,1.70
2019-04-26T03:51:51.867Z,1.60
2019-04-26T03:54:26.946Z,1.70
2019-04-26T03:57:18.672Z,2.07
2019-04-26T04:00:10.647Z,1.63
2019-04-26T04:02:50.230Z,1.73
2019-04-26T04:05:37.904Z,2.00
2019-04-26T04:08:10.926Z,1.63
2019-04-26T04:10:49.201Z,1.60
2019-04-26T04:13:40.209Z,1.60
2019-04-26T04:16:29.712Z,1.97
2019-04-26T04:19:27.243Z,2.00
2019-04-26T04:22:08.495Z,1.90
2019-04-26T04:24:53.406Z,2.00
2019-04-26T04:27:40.133Z,2.17
2019-04-26T04:30:34.405Z,2.27
2019-04-26T04:33:12.313Z,2.40
2019-04-26T04:35:50.456Z,2.47
2019-04-26T04:38:46.280Z,2.53
2019-04-26T04:41:26.743Z,2.40
2019-04-26T04:44:34.282Z,2.37
2019-04-26T04:47:24.424Z,2.50
2019-04-26T04:49:59.130Z,3.20
2019-04-26T04:52:37.626Z,2.47
2019-04-26T04:55:29.612Z,2.47
2019-04-26T04:58:10.851Z,2.80
2019-04-26T05:01:07.367Z,3.07
2019-04-26T05:03:51.838Z,2.43
2019-04-26T05:06:38.025Z,3.10
2019-04-26T05:09:13.180Z,3.13
2019-04-26T05:12:09.136Z,3.60
2019-04-26T05:14:52.830Z,3.23
2019-04-26T05:17:40.357Z,3.13
2019-04-26T05:20:26.038Z,3.20
2019-04-26T05:23:04.455Z,3.70
2019-04-26T05:26:11.665Z,3.43
2019-04-26T05:29:01.422Z,3.67
2019-04-26T05:31:42.601Z,3.53
2019-04-26T05:34:16.736Z,3.43
2019-04-26T05:37:23.998Z,3.50
2019-04-26T05:40:11.615Z,4.30
2019-04-26T05:43:19.114Z,3.97
2019-04-26T05:46:12.244Z,3.83
2019-04-26T05:48:49.276Z,3.60
2019-04-26T05:51:45.551Z,3.70
2019-04-26T05:54:43.831Z,3.50
2019-04-26T05:57:20.853Z,4.00
2019-04-26T06:00:01.138Z,3.33
2019-04-26T06:02:52.978Z,3.40
2019-04-26T06:05:27.103Z,3.00
2019-04-26T06:08:31.199Z,3.60
2019-04-26T06:11:15.584Z,3.60
2019-04-26T06:14:07.715Z,3.37
2019-04-26T06:16:52.131Z,3.47
2019-04-26T06:19:46.099Z,3.80
2019-04-26T06:22:33.412Z,3.40
2019-04-26T06:25:25.782Z,3.60
2019-04-26T06:28:02.644Z,3.60
2019-04-26T06:30:50.587Z,3.60
2019-04-26T06:33:35.081Z,3.93
2019-04-26T06:36:08.673Z,4.23
2019-04-26T06:38:57.928Z,4.43
2019-04-26T06:41:40.707Z,4.20
2019-04-26T06:44:20.349Z,4.00
2019-04-26T06:47:19.607Z,4.00
2019-04-26T06:50:23.442Z,4.63
2019-04-26T06:53:17.187Z,4.43
2019-04-26T06:56:05.053Z,4.67
2019-04-26T06:58:46.839Z,4.13
2019-04-26T07:01:24.017Z,4.60
2019-04-26T07:04:08.450Z,4.37
2019-04-26T07:06:43.659Z,4.37
2019-04-26T07:09:15.656Z,4.60
2019-04-26T07:12:11.680Z,4.40
2019-04-26T07:15:04.069Z,4.20
2019-04-26T07:17:53.180Z,4.20
2019-04-26T07:20:28.755Z,4.30
2019-04-26T07:23:43.794Z,4.23
2019-04-26T07:26:40.818Z,3.87
2019-04-26T07:29:29.413Z,4.10
2019-04-26T07:32:24.862Z,4.30
2019-04-26T07:35:15.572Z,4.23
2019-04-26T07:38:12.026Z,3.70
2019-04-26T07:41:05.148Z,3.57
2019-04-26T07:44:03.716Z,3.70
2019-04-26T07:46:42.441Z,3.50
2019-04-26T07:49:48.322Z,4.00
2019-04-26T07:52:23.638Z,3.00
2019-04-26T07:55:26.791Z,3.20
2019-04-26T07:58:15.540Z,3.33
2019-04-26T08:00:58.786Z,3.83
2019-04-26T08:03:43.034Z,3.40
2019-04-26T08:06:15.583Z,3.20
2019-04-26T08:08:53.705Z,3.87
2019-04-26T08:11:28.761Z,3.43
2019-04-26T08:14:25.141Z,3.67
2019-04-26T08:17:20.946Z,3.80
2019-04-26T08:20:06.906Z,3.20
2019-04-26T08:22:37.935Z,3.63
2019-04-26T08:25:10.392Z,3.53
2019-04-26T08:27:44.002Z,2.87
2019-04-26T08:30:19.054Z,2.93
2019-04-26T08:32:56.765Z,3.27
2019-04-26T08:35:29.741Z,2.97
2019-04-26T08:38:02.371Z,3.67
2019-04-26T08:40:35.103Z,4.07
2019-04-26T08:43:27.328Z,3.30
2019-04-26T08:46:12.576Z,3.60
2019-04-26T08:48:46.449Z,4.90
2019-04-26T08:51:20.588Z,4.10
2019-04-26T08:53:52.916Z,3.60
2019-04-26T08:56:30.895Z,4.03
2019-04-26T08:59:03.980Z,4.30
2019-04-26T09:01:46.930Z,4.53
2019-04-26T09:04:19.122Z,4.93
2019-04-26T09:07:05.235Z,5.30
2019-04-26T09:09:37.909Z,5.00
2019-04-26T09:12:22.275Z,4.80
2019-04-26T09:14:44.639Z,5.20
2019-04-26T09:17:14.208Z,4.70
2019-04-26T09:19:43.756Z,5.30
2019-04-26T09:22:27.700Z,5.17
2019-04-26T09:25:08.898Z,5.60
2019-04-26T09:27:40.039Z,4.83
2019-04-26T09:30:33.091Z,4.73
2019-04-26T09:32:53.391Z,4.40
2019-04-26T09:35:22.878Z,4.00
2019-04-26T09:37:52.442Z,4.80
2019-04-26T09:40:22.876Z,4.40
2019-04-26T09:42:57.102Z,5.05
2019-04-26T09:45:30.744Z,6.03
2019-04-26T09:48:04.684Z,6.07
2019-04-26T09:50:37.355Z,6.03
2019-04-26T09:53:09.909Z,5.57
2019-04-26T09:55:39.360Z,5.30
2019-04-26T09:58:08.866Z,5.00
2019-04-26T10:00:38.708Z,5.30
2019-04-26T10:03:09.539Z,4.57
2019-04-26T10:05:39.828Z,4.53
2019-04-26T10:08:13.076Z,4.40
2019-04-26T10:10:41.427Z,4.23
2019-04-26T10:13:15.011Z,5.43
2019-04-26T10:15:48.367Z,4.93
2019-04-26T10:18:20.386Z,5.70
2019-04-26T10:20:50.658Z,5.93
2019-04-26T10:23:20.094Z,7.00
2019-04-26T10:25:51.994Z,7.03
2019-04-26T10:28:20.792Z,7.53
2019-04-26T10:30:50.907Z,7.63
2019-04-26T10:33:23.337Z,7.40
2019-04-26T10:35:56.778Z,7.00
2019-04-26T10:38:25.437Z,6.63
2019-04-26T10:40:54.982Z,7.20
2019-04-26T10:43:29.583Z,7.03
2019-04-26T10:45:59.156Z,6.23
2019-04-26T10:48:28.599Z,7.57
2019-04-26T10:50:58.131Z,6.70
2019-04-26T10:53:42.933Z,7.20
2019-04-26T10:56:20.241Z,7.10
2019-04-26T10:58:56.281Z,8.23
2019-04-26T11:01:25.951Z,8.90
2019-04-26T11:03:55.501Z,8.03
2019-04-26T11:06:27.936Z,8.53
2019-04-26T11:08:56.692Z,8.10
2019-04-26T11:11:26.285Z,10.23
2019-04-26T11:13:57.576Z,9.87
2019-04-26T11:16:27.260Z,10.60
2019-04-26T11:18:57.143Z,11.27
2019-04-26T11:21:28.084Z,12.00
2019-04-26T11:23:58.056Z,11.93
2019-04-26T11:26:27.463Z,11.33
2019-04-26T11:29:01.425Z,11.83
2019-04-26T11:31:31.426Z,11.70
2019-04-26T11:34:05.322Z,11.60
2019-04-26T11:36:32.074Z,11.00
2019-04-26T11:39:05.480Z,10.53
2019-04-26T11:41:37.516Z,12.07
2019-04-26T11:44:07.060Z,12.30
2019-04-26T11:46:44.582Z,12.17
2019-04-26T11:49:08.305Z,12.43
2019-04-26T11:51:43.912Z,11.80
2019-04-26T11:54:13.348Z,11.93
2019-04-26T11:56:42.952Z,12.57
2019-04-26T11:59:12.541Z,11.90
2019-04-26T12:01:44.778Z,11.97
2019-04-26T12:04:24.884Z,12.10
2019-04-26T12:07:02.466Z,11.67
2019-04-26T12:09:42.501Z,11.53
2019-04-26T12:12:15.778Z,12.07
2019-04-26T12:14:45.250Z,11.40
2019-04-26T12:17:15.850Z,12.87
2019-04-26T12:19:48.228Z,11.07
2019-04-26T12:22:16.702Z,9.53
2019-04-26T12:24:46.224Z,8.23
2019-04-26T12:27:15.861Z,9.13
2019-04-26T12:29:48.266Z,8.10
2019-04-26T12:32:18.679Z,6.33
2019-04-26T12:34:48.273Z,5.63
2019-04-26T12:37:20.038Z,5.57
2019-04-26T12:39:48.912Z,5.97
2019-04-26T12:42:20.053Z,5.63
2019-04-26T12:44:52.271Z,5.70
2019-04-26T12:47:23.588Z,6.00
2019-04-26T12:49:54.564Z,5.10
2019-04-26T12:52:24.667Z,4.67
2019-04-26T12:54:54.320Z,4.10
2019-04-26T12:57:25.985Z,4.30
2019-04-26T12:59:57.475Z,3.53
2019-04-26T13:02:28.512Z,3.93
2019-04-26T13:04:57.945Z,4.10
2019-04-26T13:07:27.521Z,4.07
2019-04-26T13:10:17.187Z,3.63
2019-04-26T13:12:50.050Z,3.00
2019-04-26T13:15:59.003Z,3.40
2019-04-26T13:18:29.419Z,3.20
2019-04-26T13:21:03.120Z,2.90
2019-04-26T13:23:34.298Z,2.57
2019-04-26T13:26:07.221Z,2.30
2019-04-26T13:28:36.890Z,3.50
2019-04-26T13:31:06.402Z,3.00
2019-04-26T13:33:39.490Z,3.27
2019-04-26T13:36:09.003Z,3.10
2019-04-26T13:38:43.599Z,4.00
2019-04-26T13:41:16.169Z,4.03
2019-04-26T13:43:45.655Z,4.60
2019-04-26T13:46:19.968Z,4.43
2019-04-26T13:48:53.893Z,4.90
2019-04-26T13:51:24.988Z,4.63
2019-04-26T13:53:54.512Z,4.73
2019-04-26T13:56:25.626Z,4.77
2019-04-26T13:58:58.304Z,5.70
2019-04-26T14:01:26.426Z,5.37
2019-04-26T14:03:55.925Z,5.60
2019-04-26T14:06:26.460Z,6.43
2019-04-26T14:08:58.108Z,5.90
2019-04-26T14:11:29.531Z,6.07
2019-04-26T14:14:03.596Z,7.00
2019-04-26T14:16:33.044Z,7.20
2019-04-26T14:19:04.417Z,7.97
2019-04-26T14:21:34.884Z,8.20
2019-04-26T14:24:24.007Z,8.07
2019-04-26T14:26:56.301Z,8.43
2019-04-26T14:29:28.522Z,7.93
2019-04-26T14:32:01.427Z,8.20
2019-04-26T14:34:36.099Z,7.67
2019-04-26T14:37:06.681Z,7.70
2019-04-26T14:39:49.754Z,7.00
2019-04-26T14:42:07.303Z,6.50
2019-04-26T14:44:48.958Z,5.63
2019-04-26T14:47:14.922Z,4.73
2019-04-26T14:49:42.835Z,5.27
2019-04-26T14:52:16.207Z,4.30
2019-04-26T14:54:47.535Z,4.30
2019-04-26T14:57:24.464Z,4.70
2019-04-26T15:00:00.572Z,4.00
2019-04-26T15:02:48.587Z,4.30
2019-04-26T15:05:22.759Z,5.00
2019-04-26T15:07:53.829Z,5.83
2019-04-26T15:10:27.297Z,5.83
2019-04-26T15:13:14.257Z,6.13
2019-04-26T15:15:34.675Z,6.13
2019-04-26T15:18:05.134Z,6.33
2019-04-26T15:20:34.841Z,6.20
2019-04-26T15:23:05.932Z,7.20
2019-04-26T15:25:36.813Z,6.93
2019-04-26T15:28:10.718Z,7.80
2019-04-26T15:30:43.206Z,7.33
2019-04-26T15:33:12.829Z,7.43
2019-04-26T15:35:42.241Z,8.00
2019-04-26T15:38:11.908Z,7.53
2019-04-26T15:40:44.581Z,8.63
2019-04-26T15:43:28.335Z,8.53
2019-04-26T15:46:08.111Z,9.10
2019-04-26T15:48:43.026Z,9.70
2019-04-26T15:51:14.356Z,10.23
2019-04-26T15:53:48.855Z,10.83
2019-04-26T15:56:17.670Z,10.83
2019-04-26T15:58:48.903Z,11.50
2019-04-26T16:01:17.548Z,12.87
2019-04-26T16:03:46.997Z,13.37
2019-04-26T16:06:16.463Z,14.57
2019-04-26T16:08:45.980Z,14.73
2019-04-26T16:11:15.576Z,13.33
2019-04-26T16:13:51.297Z,13.20
2019-04-26T16:16:20.639Z,13.87
2019-04-26T16:18:55.513Z,13.33
2019-04-26T16:21:22.059Z,12.73
2019-04-26T16:23:55.174Z,12.17
2019-04-26T16:26:22.954Z,13.30
2019-04-26T16:29:06.175Z,13.20
2019-04-26T16:31:53.454Z,13.30
2019-04-26T16:34:32.446Z,14.03
2019-04-26T16:37:03.057Z,13.87
2019-04-26T16:39:38.921Z,14.20
2019-04-26T16:42:07.511Z,13.27
2019-04-26T16:44:37.567Z,13.67
2019-04-26T16:47:07.064Z,13.47
2019-04-26T16:49:42.078Z,15.03
2019-04-26T16:52:07.728Z,15.27
2019-04-26T16:54:37.741Z,14.77
2019-04-26T16:57:11.472Z,14.20
2019-04-26T16:59:48.893Z,14.33
2019-04-26T17:02:20.928Z,14.73
2019-04-26T17:04:43.887Z,14.43
2019-04-26T17:07:13.983Z,13.97
2019-04-26T17:09:57.659Z,14.07
2019-04-26T17:12:36.551Z,15.20
2019-04-26T17:15:07.795Z,14.57
2019-04-26T17:17:41.153Z,15.20
2019-04-26T17:20:10.862Z,15.03
2019-04-26T17:22:58.586Z,14.23
2019-04-26T17:25:26.611Z,14.17
2019-04-26T17:27:54.399Z,14.83
2019-04-26T17:30:25.788Z,14.40
2019-04-26T17:32:55.447Z,14.83
2019-04-26T17:35:25.538Z,14.53
2019-04-26T17:37:57.422Z,14.80
2019-04-26T17:40:30.162Z,15.10
2019-04-26T17:42:57.848Z,15.17
2019-04-26T17:45:27.725Z,14.87
2019-04-26T17:47:58.757Z,15.43
2019-04-26T17:50:31.037Z,16.30
2019-04-26T17:53:00.661Z,16.10
2019-04-26T17:55:33.351Z,15.50
2019-04-26T17:58:12.020Z,15.17
2019-04-26T18:00:46.138Z,15.13
2019-04-26T18:03:13.205Z,16.23
2019-04-26T18:05:56.005Z,16.13
2019-04-26T18:08:33.263Z,16.40
2019-04-26T18:10:43.013Z,15.43
2019-04-26T18:13:16.305Z,15.30
2019-04-26T18:15:48.470Z,16.50
2019-04-26T18:18:18.290Z,16.30
2019-04-26T18:21:01.192Z,17.13
2019-04-26T18:23:30.779Z,16.43
2019-04-26T18:26:00.284Z,16.63
2019-04-26T18:28:29.752Z,16.20
2019-04-26T18:30:59.262Z,17.20
2019-04-26T18:33:28.738Z,17.00
2019-04-26T18:35:58.226Z,15.77
2019-04-26T18:38:27.916Z,17.30
2019-04-26T18:41:01.031Z,16.87
2019-04-26T18:43:28.576Z,18.37
2019-04-26T18:46:03.353Z,18.23
2019-04-26T18:48:35.479Z,19.00
2019-04-26T18:51:03.398Z,18.13
2019-04-26T18:53:39.444Z,19.23
2019-04-26T18:56:07.730Z,19.63
2019-04-26T18:58:38.574Z,18.47
2019-04-26T19:01:10.723Z,19.13
2019-04-26T19:03:40.178Z,20.70
2019-04-26T19:06:10.717Z,19.53
2019-04-26T19:08:47.593Z,20.10
2019-04-26T19:11:12.940Z,20.93
2019-04-26T19:14:01.729Z,22.10
2019-04-26T19:16:36.185Z,21.10
2019-04-26T19:19:15.376Z,21.47
2019-04-26T19:21:43.392Z,21.90
2019-04-26T19:24:19.515Z,21.50
2019-04-26T19:26:50.031Z,21.90
2019-04-26T19:29:31.112Z,21.60
2019-04-26T19:31:56.539Z,21.20
2019-04-26T19:34:30.260Z,24.20
2019-04-26T19:36:59.826Z,23.77
2019-04-26T19:39:35.072Z,22.90
2019-04-26T19:42:02.485Z,22.97
2019-04-26T19:44:34.818Z,22.60
2019-04-26T19:47:06.903Z,26.53
2019-04-26T19:49:44.029Z,25.93
2019-04-26T19:52:22.146Z,25.57
2019-04-26T19:54:53.550Z,24.30
2019-04-26T19:57:33.408Z,24.00
2019-04-26T20:00:03.804Z,24.33
2019-04-26T20:02:38.858Z,24.63
2019-04-26T20:05:06.570Z,24.30
2019-04-26T20:07:36.378Z,24.47
2019-04-26T20:10:06.954Z,23.03
2019-04-26T20:12:38.233Z,24.57
2019-04-26T20:15:09.103Z,24.57
2019-04-26T20:17:38.622Z,24.13
2019-04-26T20:20:19.024Z,25.40
2019-04-26T20:22:39.604Z,25.80
2019-04-26T20:25:11.918Z,26.30
2019-04-26T20:27:41.660Z,26.30
2019-04-26T20:30:13.062Z,27.57
2019-04-26T20:32:47.181Z,25.80
2019-04-26T20:35:26.785Z,25.50
2019-04-26T20:37:56.324Z,26.00
2019-04-26T20:40:25.689Z,24.63
2019-04-26T20:43:01.613Z,26.50
2019-04-26T20:45:41.125Z,26.50
2019-04-26T20:48:06.280Z,25.43
2019-04-26T20:50:42.982Z,24.83
2019-04-26T20:53:12.107Z,25.77
2019-04-26T20:55:42.750Z,26.73
2019-04-26T20:58:12.430Z,26.13
2019-04-26T21:00:54.056Z,26.20
2019-04-26T21:03:23.856Z,25.03
2019-04-26T21:05:53.069Z,27.03
2019-04-26T21:08:25.742Z,25.30
2019-04-26T21:10:56.058Z,25.90
2019-04-26T21:13:30.736Z,25.30
2019-04-26T21:15:58.449Z,25.67
2019-04-26T21:18:26.334Z,27.83
2019-04-26T21:20:55.928Z,26.23
2019-04-26T21:23:25.517Z,26.43
2019-04-26T21:26:02.978Z,28.20
2019-04-26T21:28:38.119Z,28.00
2019-04-26T21:31:19.559Z,27.63
2019-04-26T21:34:12.506Z,25.57
2019-04-26T21:36:59.377Z,25.70
2019-04-26T21:39:30.682Z,25.60
2019-04-26T21:42:04.996Z,25.63
2019-04-26T21:44:35.527Z,25.67
2019-04-26T21:47:05.218Z,26.77
2019-04-26T21:49:37.955Z,25.40
2019-04-26T21:52:08.392Z,27.50
2019-04-26T21:54:37.583Z,25.57
2019-04-26T21:57:07.039Z,27.30
2019-04-26T21:59:42.025Z,27.00
2019-04-26T22:02:17.877Z,26.80
2019-04-26T22:04:43.615Z,25.33
2019-04-26T22:07:14.571Z,26.40
2019-04-26T22:09:46.111Z,26.73
2019-04-26T22:12:16.549Z,25.27
2019-04-26T22:14:50.729Z,25.67
2019-04-26T22:17:22.061Z,26.17
2019-04-26T22:20:12.474Z,26.53
2019-04-26T22:22:41.493Z,26.43
2019-04-26T22:25:12.927Z,27.67
2019-04-26T22:27:43.703Z,27.60
2019-04-26T22:30:15.119Z,26.10
2019-04-26T22:32:44.549Z,27.23
2019-04-26T22:35:20.205Z,26.33
2019-04-26T22:37:48.053Z,26.17
2019-04-26T22:40:19.770Z,28.53
2019-04-26T22:42:50.751Z,26.37
2019-04-26T22:45:27.717Z,26.57
2019-04-26T22:48:03.551Z,26.77
2019-04-26T22:50:33.623Z,26.23
2019-04-26T22:53:04.338Z,27.17
2019-04-26T22:55:33.761Z,28.23
2019-04-26T22:58:04.973Z,28.43
2019-04-26T23:00:36.109Z,27.13
2019-04-26T23:03:07.281Z,26.63
2019-04-26T23:05:39.253Z,27.67
2019-04-26T23:08:08.984Z,27.40
2019-04-26T23:10:40.142Z,28.20
2019-04-26T23:13:27.807Z,27.60
2019-04-26T23:16:08.291Z,27.67
2019-04-26T23:18:38.690Z,26.83
2019-04-26T23:21:12.058Z,26.43
2019-04-26T23:23:42.757Z,28.13
2019-04-26T23:26:14.489Z,27.37
2019-04-26T23:28:44.078Z,27.67
2019-04-26T23:31:13.898Z,28.10
2019-04-26T23:33:43.389Z,26.70
2019-04-26T23:36:13.630Z,28.40
2019-04-26T23:38:43.902Z,28.93
2019-04-26T23:41:14.229Z,28.07
2019-04-26T23:43:43.818Z,27.20
2019-04-26T23:46:14.658Z,28.27
2019-04-26T23:48:48.774Z,28.47
2019-04-26T23:51:15.346Z,29.60
2019-04-26T23:53:44.885Z,28.73
2019-04-26T23:56:21.666Z,29.30
2019-04-26T23:58:47.182Z,28.40
